Dirección General De Aeronáutica Civil

Dirección Meteorológica de Chile - Servicios Climáticos

Informe General de Control de Calidad de la Estación

Listado de niveles de control de calidad para algunos parámetros
Estación Punta Carranza faro (350007)
Fecha de Revisión de los datos :

Elementos

Registros Niveles de Control Total
Nivel 0 Nivel 1 Nivel 2 Nivel 3 Errores Porcentaje
01 Temperatura del Aire Seco 7.045 0 . 0 . 0 . 0 . 0 0.00 %
02 Temperatura de Rocío 7.045 0 . 0 . 0 . 0 . 0 0.00 %
03 Humedad Relativa del Aire 7.045 0 . 0 . 0 . 0 . 0 0.00 %
04 Temperatura Máxima PM 1.409 0 . 0 . 18 1.28 % 0 . 18 1.28 %
05 Temperatura Mínima AM 1.403 0 . 0 . 0 . 0 . 0 0.00 %
06 Viento a 10 m. de Altura 7.045 0 . 0 . 0 . 0 . 0 0.00 %
07 Agua Caida, Acumulada 6 Horas 4.221 0 . 93 2.20 % 0 . 0 . 93 2.20 %
08 Presión Atm. a Nivel de Estación (QFE) 7.045 0 . 0 . 0 . 0 . 0 0.00 %
09 Presión Atm. a Nivel Medio del Mar (QFF) 7.045 0 . 0 . 0 . 0 . 0 0.00 %
10 Tiempo Pasado Sinóptico 7.045 0 . 0 . 0 . 0 . 0 0.00 %
11 Tiempo Presente Sinóptico 7.045 0 . 2 0.03 % 0 . 0 . 2 0.03 %

Totales

63.393 . 0.0000 % . 0.1499 % . 0.0284 % . 0.0000 % 113 0.1783 %

Detalle de Errores Recientes

Fecha del Dato Descripción Información Error Fecha Ingreso
2024-01-19 00:00:00 Temperatura 16.2 del 18-01-2024 15:00, Mayor que la Máxima 15.6 19-01-2024 00:00 16.2 -- 15.6 2024-01-19 00:37:00
Total de Errores Recientes 1

Detalle de Errores Encontrados

Nivel Fecha del Dato Descripción Información Error Fecha Ingreso
1 2020-05-05 12:00:00 rrr = 0.1 y WW = 0 w1=0 w2=0 0.1 2020-05-05 12:31:00
1 2020-05-08 12:00:00 rrr = 0.2 y WW = 10 w1=0 w2=0 0.2 2020-05-08 12:35:00
1 2020-05-09 12:00:00 rrr = trazas y WW = 10 w1=2 w2=2 0.0 2020-05-09 12:11:00
1 2020-05-10 18:00:00 rrr = s/p y WW = 2 w1=6 w2=2 0.0 2020-05-10 18:12:00
1 2020-05-17 00:00:00 rrr = 0.1 y WW = 10 w1=0 w2=0 0.1 2020-05-17 00:12:00
1 2020-05-18 12:00:00 rrr = s/p y WW = 10 w1=5 w2=2 0.0 2020-05-18 12:34:00
1 2020-05-19 12:00:00 rrr = 0.3 y WW = 10 w1=4 w2=2 0.3 2020-05-19 12:09:00
1 2020-05-25 00:00:00 rrr = 0.1 y WW = 40 w1=0 w2=0 0.1 2020-05-24 23:44:00
1 2020-05-26 12:00:00 rrr = 0.3 y WW = 40 w1=1 w2=0 0.3 2020-05-26 13:29:00
1 2020-05-27 00:00:00 rrr = 0.2 y WW = 10 w1=2 w2=2 0.2 2020-05-26 23:41:00
1 2020-06-07 18:00:00 rrr = s/p y WW = 2 w1=5 w2=2 0.0 2020-06-07 18:06:00
1 2020-06-20 12:00:00 rrr = 0.2 y WW = 2 w1=4 w2=2 0.2 2020-06-20 12:22:00
1 2020-07-08 00:00:00 rrr = 0.6 y WW = 2 w1=2 w2=2 0.6 2020-07-08 00:12:00
1 2020-07-10 18:00:00 rrr = 1.5 y WW = 1 w1=2 w2=2 1.5 2020-07-10 18:19:00
1 2020-07-18 00:00:00 rrr = 3.5 y WW = 10 w1=2 w2=2 3.5 2020-07-18 00:23:00
1 2020-07-20 00:00:00 rrr = trazas y WW = 2 w1=2 w2=2 0.0 2020-07-19 23:53:00
1 2020-07-20 12:00:00 rrr = 6.3 y WW = 2 w1=2 w2=2 6.3 2020-07-20 12:51:00
1 2020-07-23 00:00:00 rrr = 0.3 y WW = 2 w1=2 w2=2 0.3 2020-07-23 03:53:00
1 2020-08-03 12:00:00 rrr = 0.3 y WW = 10 w1=2 w2=2 0.3 2020-08-03 12:27:00
1 2020-08-04 00:00:00 rrr = trazas y WW = 0 w1=0 w2=0 0.0 2020-08-04 00:31:00
1 2020-08-04 12:00:00 rrr = 0.3 y WW = 10 w1=4 w2=2 0.3 2020-08-05 15:11:00
1 2020-08-05 12:00:00 rrr = 2.6 y WW = 2 w1=4 w2=2 2.6 2020-08-05 13:23:00
1 2020-08-09 18:00:00 rrr = 1.5 y WW = 10 w1=2 w2=2 1.5 2020-08-09 19:31:00
1 2020-08-18 18:00:00 rrr = 0.2 y WW = 2 w1=0 w2=0 0.2 2020-08-18 18:08:00
1 2020-08-25 00:00:00 rrr = s/p y WW = 10 w1=5 w2=2 0.0 2020-08-25 10:28:00
1 2020-09-01 00:00:00 rrr = trazas y WW = 2 w1=0 w2=0 0.0 2020-09-01 00:29:00
1 2020-09-20 12:00:00 rrr = 0.1 y WW = 40 w1=0 w2=0 0.1 2020-09-20 12:29:00
1 2020-09-24 12:00:00 rrr = 0.2 y WW = 10 w1=2 w2=2 0.2 2020-09-24 18:39:00
1 2020-09-26 12:00:00 rrr = 0.1 y WW = 2 w1=2 w2=2 0.1 2020-09-26 14:51:00
1 2020-09-28 12:00:00 rrr = 40.0 y WW = 40 w1=0 w2=0 40.0 2020-09-28 11:56:00
1 2020-10-17 12:00:00 rrr = 0.2 y WW = 10 w1=2 w2=0 0.2 2020-10-17 12:08:00
1 2020-10-25 12:00:00 rrr = 1.2 y WW = 2 w1=0 w2=0 1.2 2020-10-25 12:52:00
1 2020-10-31 12:00:00 rrr = 0.3 y WW = 10 w1=4 w2=4 0.3 2020-10-31 14:04:00
1 2020-12-04 12:00:00 rrr = trazas y WW = 2 w1=0 w2=0 0.0 2020-12-04 12:01:00
1 2020-12-07 12:00:00 rrr = 0.4 y WW = 10 w1=2 w2=2 0.4 2020-12-07 12:24:00
1 2020-12-14 18:00:00 rrr = trazas y WW = 2 w1=0 w2=0 0.0 2020-12-14 21:55:00
1 2020-12-18 12:00:00 rrr = 0.5 y WW = 10 w1=2 w2=2 0.5 2020-12-18 12:29:00
1 2020-12-18 18:00:00 rrr = trazas y WW = 10 w1=2 w2=2 0.0 2020-12-18 17:59:00
1 2020-12-19 12:00:00 rrr = trazas y WW = 2 w1=2 w2=2 0.0 2020-12-19 13:04:00
1 2021-01-01 18:00:00 rrr = trazas y WW = 2 w1=0 w2=0 0.0 2021-01-01 18:02:00
1 2021-01-01 18:00:00 rrr = trazas y WW = 2 w1=0 w2=0 0.0 2021-01-01 18:02:00
1 2021-01-27 12:00:00 rrr = 0.2 y WW = 10 w1=2 w2=2 0.2 2021-01-27 11:51:00
1 2021-01-31 12:00:00 rrr = 0.2 y WW = 2 w1=2 w2=2 0.2 2021-01-31 12:28:00
1 2021-02-05 12:00:00 rrr = 0.3 y WW = 10 w1=2 w2=2 0.3 2021-02-05 19:54:00
1 2021-02-11 12:00:00 rrr = 1.3 y WW = 10 w1=2 w2=2 1.3 2021-02-11 12:32:00
1 2021-02-26 12:00:00 rrr = 0.2 y WW = 2 w1=2 w2=2 0.2 2021-02-26 16:43:00
1 2021-03-02 12:00:00 rrr = 0.2 y WW = 10 w1=2 w2=2 0.2 2021-03-02 12:13:00
1 2021-03-05 00:00:00 rrr = 20.0 y WW = 2 w1=2 w2=0 20.0 2021-03-05 00:14:00
1 2021-03-05 12:00:00 rrr = 0.2 y WW = 10 w1=2 w2=2 0.2 2021-03-05 12:09:00
1 2021-03-06 12:00:00 rrr = 0.2 y WW = 10 w1=2 w2=2 0.2 2021-03-06 13:14:00
1 2021-03-15 12:00:00 rrr = 0.2 y WW = 10 w1=2 w2=2 0.2 2021-03-15 12:51:00
1 2021-04-02 00:00:00 rrr = trazas y WW = 10 w1=2 w2=2 0.0 2021-04-02 00:27:00
1 2021-04-03 12:00:00 rrr = 0.2 y WW = 2 w1=0 w2=0 0.2 2021-04-03 13:01:00
1 2021-04-05 12:00:00 rrr = 0.2 y WW = 2 w1=2 w2=2 0.2 2021-04-05 13:32:00
1 2021-05-27 18:00:00 rrr = s/p y WW = 45 w1=5 w2=4 0.0 2021-05-27 18:31:00
1 2021-05-28 12:00:00 rrr = 10.1 y WW = 10 w1=4 w2=4 10.1 2021-05-28 12:16:00
1 2021-06-22 12:00:00 rrr = s/p y WW = 10 w1=6 w2=2 0.0 2021-06-22 12:15:00
1 2021-07-09 18:00:00 rrr = s/p y WW = 10 w1=6 w2=2 0.0 2021-07-09 21:15:00
1 2021-07-10 12:00:00 rrr = s/p y WW = 3 w1=8 w2=2 0.0 2021-07-10 13:00:00
1 2021-07-16 18:00:00 rrr = s/p y WW = 1 w1=6 w2=2 0.0 2021-07-16 18:29:00
1 2021-08-15 18:00:00 rrr = s/p y WW = 20 w1=2 w2=2 0.0 2021-08-15 18:46:00
1 2021-10-27 00:00:00 rrr = trazas y WW = 2 w1=0 w2=0 0.0 2021-10-27 03:06:00
1 2021-11-07 12:00:00 rrr = trazas y WW = 3 w1=2 w2=2 0.0 2021-11-07 12:18:00
1 2021-12-19 12:00:00 rrr = 10.0 y WW = 10 w1=0 w2=0 10.0 2021-12-19 14:06:00
1 2021-12-29 12:00:00 rrr = s/p y WW = 51 w1=2 w2=2 0.0 2021-12-29 12:12:00
1 2022-01-31 00:00:00 rrr = s/p y WW = 20 w1=0 w2=0 0.0 2022-01-31 00:23:00
1 2022-03-03 18:00:00 rrr = 2.0 y WW = 2 w1=2 w2=2 2.0 2022-03-03 19:50:00
1 2022-03-23 18:00:00 rrr = s/p y WW = 1 w1=6 w2=2 0.0 2022-03-23 22:23:00
1 2022-04-20 12:00:00 rrr = s/p y WW = 44 w1=6 w2=4 0.0 2022-04-20 12:05:00
1 2022-04-22 18:00:00 rrr = s/p y WW = 53 w1=6 w2=6 0.0 2022-04-28 15:19:00
1 2022-04-23 12:00:00 rrr = s/p y WW = 53 w1=5 w2=3 0.0 2022-04-23 12:31:00
1 2022-04-25 12:00:00 rrr = s/p y WW = 10 w1=6 w2=2 0.0 2022-04-25 12:14:00
1 2022-04-25 18:00:00 rrr = trazas y WW = 2 w1=2 w2=2 0.0 2022-04-25 18:00:00
1 2022-04-26 18:00:00 rrr = s/p y WW = 63 w1=6 w2=6 0.0 2022-04-28 15:17:00
1 2022-05-13 12:00:00 rrr = s/p y WW = 1 w1=5 w2=4 0.0 2022-05-13 12:22:00
1 2022-05-20 18:00:00 rrr = s/p y WW = 10 w1=6 w2=0 0.0 2022-05-20 18:24:00
1 2022-05-25 12:00:00 rrr = s/p y WW = 1 w1=5 w2=2 0.0 2022-05-25 12:13:00
1 2022-06-30 00:00:00 rrr = s/p y WW = 1 w1=6 w2=0 0.0 2022-06-30 00:31:00
1 2022-07-15 12:00:00 rrr = s/p y WW = 2 w1=6 w2=6 0.0 2022-07-15 12:09:00
1 2022-08-17 12:00:00 rrr = s/p y WW = 2 w1=6 w2=0 0.0 2022-08-17 12:25:00
1 2022-09-25 12:00:00 rrr = 0.5 y WW = 1 w1=2 w2=2 0.5 2022-09-25 12:12:00
1 2022-09-30 12:00:00 rrr = s/p y WW = 2 w1=5 w2=2 0.0 2022-09-30 11:46:00
1 2022-10-30 12:00:00 rrr = s/p y WW = 1 w1=5 w2=2 0.0 2022-10-30 12:07:00
1 2022-11-28 18:00:00 rrr = s/p y WW = 2 w1=5 w2=2 0.0 2022-11-28 18:38:00
1 2023-02-12 12:00:00 rrr = 3.0 y WW = 0 w1=0 w2=0 3.0 2023-02-12 12:06:00
1 2023-03-29 12:00:00 rrr = s/p y WW = 1 w1=5 w2=5 0.0 2023-03-29 12:01:00
1 2023-05-23 18:00:00 rrr = s/p y WW = 1 w1=6 w2=2 0.0 2023-05-23 19:46:00
1 2023-05-31 18:00:00 rrr = s/p y WW = 44 w1=8 w2=4 0.0 2023-05-31 18:05:00
1 2023-06-04 12:00:00 rrr = s/p y WW = 1 w1=6 w2=2 0.0 2023-06-04 12:09:00
1 2023-07-05 12:00:00 rrr = s/p y WW = 3 w1=8 w2=2 0.0 2023-07-05 12:04:00
1 2023-08-23 00:00:00 rrr = s/p y WW = 1 w1=6 w2=2 0.0 2023-08-23 00:09:00
1 2023-10-29 18:00:00 rrr = s/p y WW = 1 w1=8 w2=2 0.0 2023-10-29 18:03:00
1 2023-11-18 00:00:00 rrr = s/p y WW = 3 w1=6 w2=2 0.0 2023-11-18 00:07:00
1 2022-04-20 00:00:00 ts > 3.0 y ( (ww >= 48 y ww <= 49) o (ww >= 56 y ww <= 57) o (ww >=66 y ww <= 67)) 57 2022-04-20 00:14:00
1 2022-11-29 12:00:00 ts > 3.0 y ( (ww >= 48 y ww <= 49) o (ww >= 56 y ww <= 57) o (ww >=66 y ww <= 67)) 56 2022-11-29 12:09:00
Errores del Nivel 95
Nivel Fecha del Dato Descripción Información Error Fecha Ingreso
2 2020-12-10 00:00:00 Temperatura 16.3 del 09-12-2020 18:00, Mayor que la Máxima 16.2 10-12-2020 00:00 16.3 -- 16.2 2020-12-10 01:21:00
2 2021-01-10 00:00:00 Temperatura 17.5 del 09-01-2021 21:00, Mayor que la Máxima 17.0 10-01-2021 00:00 17.5 -- 17.0 2021-01-11 13:11:00
2 2021-01-31 00:00:00 Temperatura 17.8 del 30-01-2021 18:00, Mayor que la Máxima 17.7 31-01-2021 00:00 17.8 -- 17.7 2021-01-31 12:25:00
2 2021-03-28 00:00:00 Temperatura 16.6 del 27-03-2021 18:00, Mayor que la Máxima 16.2 28-03-2021 00:00 16.6 -- 16.2 2021-03-28 06:26:00
2 2021-04-18 00:00:00 Temperatura 14.3 del 17-04-2021 18:00, Mayor que la Máxima 14.0 18-04-2021 00:00 14.3 -- 14.0 2021-04-18 00:17:00
2 2021-05-06 00:00:00 Temperatura 17.4 del 05-05-2021 15:00, Mayor que la Máxima 15.3 06-05-2021 00:00 17.4 -- 15.3 2021-05-05 23:55:00
2 2021-05-09 00:00:00 Temperatura 15.9 del 08-05-2021 18:00, Mayor que la Máxima 14.2 09-05-2021 00:00 15.9 -- 14.2 2021-05-09 00:20:00
2 2021-05-22 00:00:00 Temperatura 15.2 del 21-05-2021 21:00, Mayor que la Máxima 15.0 22-05-2021 00:00 15.2 -- 15.0 2021-05-22 00:32:00
2 2021-09-04 00:00:00 Temperatura 13.8 del 03-09-2021 18:00, Mayor que la Máxima 13.0 04-09-2021 00:00 13.8 -- 13.0 2021-09-03 23:51:00
2 2021-10-06 00:00:00 Temperatura 13.5 del 05-10-2021 18:00, Mayor que la Máxima 13.0 06-10-2021 00:00 13.5 -- 13.0 2021-10-06 00:08:00
2 2021-11-05 00:00:00 Temperatura 14.0 del 04-11-2021 18:00, Mayor que la Máxima 13.2 05-11-2021 00:00 14.0 -- 13.2 2021-11-05 00:36:00
2 2021-11-09 00:00:00 Temperatura 15.0 del 08-11-2021 18:00, Mayor que la Máxima 14.8 09-11-2021 00:00 15.0 -- 14.8 2021-11-09 00:16:00
2 2021-11-20 00:00:00 Temperatura 14.8 del 19-11-2021 18:00, Mayor que la Máxima 14.2 20-11-2021 00:00 14.8 -- 14.2 2021-11-20 00:25:00
2 2022-02-17 00:00:00 Temperatura 17.2 del 16-02-2022 18:00, Mayor que la Máxima 17.0 17-02-2022 00:00 17.2 -- 17.0 2022-02-17 00:00:00
2 2022-02-20 00:00:00 Temperatura 17.4 del 19-02-2022 18:00, Mayor que la Máxima 16.7 20-02-2022 00:00 17.4 -- 16.7 2022-02-20 00:30:00
2 2022-07-24 00:00:00 Temperatura 12.7 del 23-07-2022 21:00, Mayor que la Máxima 12.3 24-07-2022 00:00 12.7 -- 12.3 2022-07-23 23:58:00
2 2023-01-27 00:00:00 Temperatura 17.5 del 26-01-2023 18:00, Mayor que la Máxima 16.6 27-01-2023 00:00 17.5 -- 16.6 2023-01-27 00:25:00
2 2024-01-19 00:00:00 Temperatura 16.2 del 18-01-2024 15:00, Mayor que la Máxima 15.6 19-01-2024 00:00 16.2 -- 15.6 2024-01-19 00:37:00
Errores del Nivel 18
Informe generado el 05-03-2024 10:30
Requerimiento: RE6001